Huff, North Dakota
Current Conditions -  °F | °C
As of 5:35 PM on Wednesday 22 Oct 2014 (Local Time) from KY19 Reporting Station
Clear Clear  
Wind Chill: 64°   Ceiling: Unl
Heat Index: 64°   Visibility: 10mi
Dew Point: 37°   Wind: 16mph
Humidity: 37%   Direction: 260°W
Pressure: 29.86"   Gusts: 24mph
Location:  46.7289°N, 100.983°W
Report Text: KY19 222235Z AUTO 26014G21KT 10SM CLR 18/03 A2986 RMK AO2
Loading
Personal Weather Stations






























Interactive Weather Map
Tropical Storm Tracking
New forecast layout! Learn more

10-Day Weather Forecast

Advertisements
Track Severe Weather on mobile